Nearby METAR Reports

 

KAWO - Arlington Muni, Washington, USA
Distance from station: WSW 26mi, 42km
Updated: Tue, 02-Sep-2014 11:35am PDT
Overcast
Overcast
 Wind from WNW
Wind: WNW 3 mph , 6 km/h
Temperature: 64°F , 18°C
Dew Point: 52°F , 11°C
Humidity: 64%
Barometer: 29.91 inHg , 1012.9 hPa
Clouds: Overcast
Visibility: 10 miles , 16 km
Cloud details: Partly cloudy 2600 ft
Mostly cloudy 3900 ft
Overcast 6500 ft
2014/09/02 18:35 KAWO 021835Z AUTO 29003KT 10SM SCT026 BKN039 OVC065 18/11 A2991 RMK AO1
KPAE - Everett, Washington, USA
Distance from station: SW 39mi, 62km
Updated: Tue, 02-Sep-2014 10:53am PDT
Overcast
Overcast
 Wind from varies
Wind: varies 3 mph , 6 km/h
Temperature: 61°F , 16°C
Dew Point: 54°F , 12°C
Humidity: 77%
Barometer: 29.92 inHg , 1013.2 hPa
Clouds: Overcast
Visibility: 10 miles , 16 km
Cloud details: Mostly cloudy 1800 ft
Overcast 4000 ft
2014/09/02 17:53 KPAE 021753Z VRB03KT 10SM BKN018 OVC040 16/12 A2992 RMK AO2 SLP131 T01560117 10156 20133 56010
 
KBVS - Burlington/Mt V, Washington, USA
Distance from station: WNW 40mi, 64km
Updated: Tue, 02-Sep-2014 11:35am PDT
Mostly cloudy
Mostly cloudy
 Wind from SSW
Wind: SSW 9 mph , 15 km/h
Temperature: 63°F , 17°C
Dew Point: 54°F , 12°C
Humidity: 73%
Barometer: 29.91 inHg , 1012.9 hPa
Clouds: Mostly cloudy
Visibility: 10 miles , 16 km
Cloud details: Partly cloudy 2300 ft
Mostly cloudy 6000 ft
Mostly cloudy 9000 ft
2014/09/02 18:35 KBVS 021835Z AUTO 20008KT 030V040 10SM SCT023 BKN060 BKN090 17/12 A2991 RMK A01 P000
KNUW - Whidbey Is. Nas, Washington, USA
Distance from station: W 48mi, 78km
Updated: Tue, 02-Sep-2014 10:56am PDT
Overcast
Overcast
 Wind from SSW
Wind: SSW 13 mph , 20 km/h
Temperature: 63°F , 17°C
Dew Point: 52°F , 11°C
Humidity: 68%
Barometer: 29.91 inHg , 1012.9 hPa
Clouds: Overcast
Visibility: 10 miles , 16 km
Cloud details: Few Clouds 1200 ft
Partly cloudy 4500 ft
Mostly cloudy 12000 ft
Overcast 25000 ft
2014/09/02 17:56 KNUW 021756Z 21011KT 10SM FEW012 SCT045 BKN120 OVC250 17/11 A2991 RMK AO2 RAE13 SLP130 P0000 60000 T01720106 10178 20139 56011 $
 
KBLI - Bellingham, Washington, USA
Distance from station: NW 57mi, 91km
Updated: Tue, 02-Sep-2014 11:01am PDT
Light rain, Overcast
Light rain, Overcast
 Wind from S
Wind: S 13 mph , 20 km/h, Gust: 24 mph , 39 km/h
Temperature: 61°F , 16°C
Dew Point: 52°F , 11°C
Humidity: 72%
Barometer: 29.87 inHg , 1011.5 hPa
Summary: Light rain
Clouds: Overcast
Visibility: 10 miles , 16 km
Cloud details: Mostly cloudy 1700 ft
Mostly cloudy 6500 ft
Overcast 9000 ft
2014/09/02 18:01 KBLI 021801Z 17011G21KT 10SM -RA BKN017 BKN065 OVC090 16/11 A2987 RMK AO2 RAB01 P0000
KBFI - Seattle/Boeing, Washington, USA
Distance from station: SW 58mi, 94km
Updated: Tue, 02-Sep-2014 10:53am PDT
Overcast
Overcast
 Wind from varies
Wind: varies 3 mph , 6 km/h
Temperature: 66°F , 19°C
Dew Point: 55°F , 13°C
Humidity: 68%
Barometer: 29.90 inHg , 1012.5 hPa
Clouds: Overcast
Visibility: 10 miles , 16 km
Cloud details: Few Clouds 2300 ft
Mostly cloudy 3000 ft
Overcast 3600 ft
2014/09/02 17:53 KBFI 021753Z VRB03KT 10SM FEW023 BKN030 OVC036 19/13 A2990 RMK AO2 SLP126 T01940128 10194 20178 58012